createdAt,value
2023-05-09T00:04:46.793Z,69.36
2023-05-09T00:09:49.582Z,69.31
2023-05-09T00:14:54.274Z,69.17
2023-05-09T00:19:58.392Z,69.29
2023-05-09T00:25:01.390Z,69.03
2023-05-09T00:30:05.976Z,69.06
2023-05-09T00:35:10.914Z,69.29
2023-05-09T00:40:14.252Z,69.02
2023-05-09T00:45:17.306Z,69.40
2023-05-09T00:50:21.895Z,69.18
2023-05-09T00:55:24.938Z,69.31
2023-05-09T01:00:28.203Z,69.24
2023-05-09T01:05:41.851Z,69.57
2023-05-09T01:10:47.892Z,69.38
2023-05-09T01:15:55.410Z,69.38
2023-05-09T01:27:52.020Z,69.28
2023-05-09T01:33:00.648Z,69.33
2023-05-09T01:38:06.954Z,69.07
2023-05-09T01:43:11.120Z,69.20
2023-05-09T01:48:15.534Z,69.05
2023-05-09T01:53:18.688Z,68.96
2023-05-09T01:58:22.040Z,68.81
2023-05-09T02:03:26.797Z,68.93
2023-05-09T02:08:29.651Z,68.98
2023-05-09T02:13:32.325Z,69.04
2023-05-09T02:18:37.155Z,68.91
2023-05-09T02:23:39.834Z,69.09
2023-05-09T02:28:45.322Z,69.08
2023-05-09T02:33:49.899Z,68.95
2023-05-09T02:38:52.638Z,68.88
2023-05-09T02:43:55.254Z,68.52
2023-05-09T02:48:59.227Z,68.47
2023-05-09T02:54:02.309Z,68.66
2023-05-09T02:59:05.181Z,68.56
2023-05-09T03:04:09.261Z,68.61
2023-05-09T03:09:12.151Z,68.80
2023-05-09T03:14:15.653Z,68.72
2023-05-09T03:19:19.744Z,68.54
2023-05-09T03:24:23.084Z,68.52
2023-05-09T03:29:26.060Z,68.42
2023-05-09T03:34:31.332Z,68.54
2023-05-09T03:39:34.688Z,68.36
2023-05-09T03:44:38.099Z,68.52
2023-05-09T03:49:42.621Z,68.25
2023-05-09T03:54:47.879Z,68.37
2023-05-09T03:59:51.369Z,68.42
2023-05-09T04:04:55.856Z,68.20
2023-05-09T04:09:59.234Z,68.51
2023-05-09T04:15:02.208Z,68.11
2023-05-09T04:20:08.936Z,68.28
2023-05-09T04:25:14.287Z,68.08
2023-05-09T04:30:17.712Z,68.29
2023-05-09T04:35:23.476Z,68.04
2023-05-09T04:40:28.736Z,67.78
2023-05-09T04:45:35.072Z,67.98
2023-05-09T04:50:39.224Z,67.98
2023-05-09T04:55:41.900Z,68.03
2023-05-09T05:00:44.833Z,67.94
2023-05-09T05:05:49.020Z,67.82
2023-05-09T05:10:51.987Z,67.56
2023-05-09T05:15:56.294Z,67.76
2023-05-09T05:21:00.374Z,67.90
2023-05-09T05:26:03.754Z,67.69
2023-05-09T05:31:08.220Z,67.86
2023-05-09T05:36:12.375Z,69.17
2023-05-09T05:41:15.639Z,69.87
2023-05-09T05:46:19.401Z,69.76
2023-05-09T05:51:24.034Z,69.38
2023-05-09T05:56:27.223Z,69.16
2023-05-09T06:01:31.128Z,68.91
2023-05-09T06:06:35.777Z,68.59
2023-05-09T06:11:39.097Z,67.79
2023-05-09T06:16:41.850Z,67.60
2023-05-09T06:21:45.906Z,67.60
2023-05-09T06:26:51.926Z,67.08
2023-05-09T06:31:54.565Z,67.08
2023-05-09T06:36:58.669Z,66.65
2023-05-09T06:42:01.410Z,66.02
2023-05-09T06:47:08.131Z,65.27
2023-05-09T06:52:12.867Z,64.24
2023-05-09T06:58:05.887Z,64.06
2023-05-09T07:03:08.527Z,64.41
2023-05-09T07:08:12.598Z,64.69
2023-05-09T07:13:15.351Z,64.36
2023-05-09T07:18:18.035Z,64.66
2023-05-09T07:23:22.054Z,64.46
2023-05-09T07:28:24.682Z,64.58
2023-05-09T07:33:27.366Z,64.60
2023-05-09T07:38:31.478Z,64.71
2023-05-09T07:43:34.187Z,64.36
2023-05-09T07:48:36.884Z,64.33
2023-05-09T07:53:41.007Z,64.32
2023-05-09T07:58:44.020Z,64.25
2023-05-09T08:03:46.705Z,64.19
2023-05-09T08:08:50.729Z,64.13
2023-05-09T08:13:59.309Z,64.02
2023-05-09T08:19:01.952Z,64.07
2023-05-09T08:24:25.473Z,63.92
2023-05-09T08:29:28.890Z,64.24
2023-05-09T08:34:34.394Z,64.15
2023-05-09T08:39:38.358Z,63.64
2023-05-09T08:44:41.033Z,63.80
2023-05-09T08:49:43.914Z,63.74
2023-05-09T08:54:47.963Z,63.77
2023-05-09T08:59:51.393Z,63.52
2023-05-09T09:04:57.418Z,63.51
2023-05-09T09:10:01.970Z,63.53
2023-05-09T09:15:06.497Z,63.18
2023-05-09T09:20:11.888Z,63.48
2023-05-09T09:25:15.902Z,63.29
2023-05-09T09:36:27.398Z,63.54
2023-05-09T09:48:26.604Z,63.56
2023-05-09T09:53:30.890Z,63.71
2023-05-09T09:58:47.760Z,63.76
2023-05-09T10:03:51.847Z,63.95
2023-05-09T10:08:54.655Z,63.63
2023-05-09T10:14:05.431Z,63.77
2023-05-09T10:19:19.629Z,65.38
2023-05-09T10:44:22.900Z,65.23
2023-05-09T10:49:25.651Z,63.23
2023-05-09T10:54:33.310Z,61.92
2023-05-09T10:59:38.070Z,62.66
2023-05-09T11:04:41.373Z,61.94
2023-05-09T11:09:45.422Z,60.43
2023-05-09T11:14:49.796Z,60.81
2023-05-09T11:20:00.131Z,60.26
2023-05-09T11:25:09.732Z,60.35
2023-05-09T11:30:15.556Z,60.51
2023-05-09T11:35:20.902Z,59.96
2023-05-09T11:40:25.005Z,60.25
2023-05-09T11:45:29.360Z,57.53
2023-05-09T11:50:32.253Z,57.28
2023-05-09T11:55:39.127Z,59.72
2023-05-09T12:00:45.236Z,60.41
2023-05-09T12:05:49.122Z,60.48
2023-05-09T12:10:53.211Z,58.16
2023-05-09T12:16:01.394Z,58.33
2023-05-09T12:21:04.392Z,58.48
2023-05-09T12:26:08.440Z,58.49
2023-05-09T12:31:11.269Z,58.80
2023-05-09T12:36:15.853Z,58.24
2023-05-09T12:41:34.976Z,57.35
2023-05-09T12:46:40.060Z,58.34
2023-05-09T12:51:49.993Z,58.03
2023-05-09T12:56:56.941Z,58.02
2023-05-09T13:02:01.702Z,57.03
2023-05-09T13:07:10.211Z,58.16
2023-05-09T13:12:14.571Z,58.46
2023-05-09T13:17:17.422Z,58.24
2023-05-09T13:22:20.158Z,57.68
2023-05-09T13:27:24.295Z,57.38
2023-05-09T13:32:27.283Z,57.36
2023-05-09T13:37:30.025Z,57.35
2023-05-09T13:42:34.844Z,57.49
2023-05-09T13:47:38.762Z,57.31
2023-05-09T13:52:44.577Z,56.34
2023-05-09T13:57:48.670Z,55.69
2023-05-09T14:02:52.732Z,56.13
2023-05-09T14:07:55.642Z,56.53
2023-05-09T14:12:59.685Z,57.18
2023-05-09T14:18:02.887Z,57.47
2023-05-09T14:23:05.723Z,57.74
2023-05-09T14:28:17.797Z,57.14
2023-05-09T14:33:20.559Z,57.37
2023-05-09T14:38:30.528Z,58.47
2023-05-09T14:43:34.690Z,59.06
2023-05-09T14:48:37.382Z,59.83
2023-05-09T14:53:41.733Z,60.28
2023-05-09T14:58:45.891Z,60.70
2023-05-09T15:03:48.871Z,62.02
2023-05-09T15:08:52.081Z,61.98
2023-05-09T15:13:56.089Z,61.81
2023-05-09T15:18:58.705Z,62.02
2023-05-09T15:24:01.989Z,61.64
2023-05-09T15:29:06.056Z,61.54
2023-05-09T15:34:08.746Z,61.28
2023-05-09T15:39:11.433Z,61.69
2023-05-09T15:44:16.259Z,61.80
2023-05-09T15:49:19.020Z,62.45
2023-05-09T15:54:23.204Z,61.72
2023-05-09T15:59:27.579Z,62.88
2023-05-09T16:04:30.574Z,63.31
2023-05-09T16:09:33.302Z,63.51
2023-05-09T16:14:37.396Z,64.06
2023-05-09T16:19:40.952Z,64.04
2023-05-09T16:25:18.899Z,64.56
2023-05-09T17:01:06.409Z,65.60
2023-05-09T17:07:54.975Z,66.12
2023-05-09T17:19:43.780Z,66.18
2023-05-09T17:24:46.405Z,66.20
2023-05-09T17:29:50.052Z,66.65
2023-05-09T17:34:54.364Z,66.11
2023-05-09T17:39:57.229Z,66.48
2023-05-09T17:46:02.035Z,66.23
2023-05-09T17:51:11.197Z,66.93
2023-05-09T17:56:13.816Z,67.38
2023-05-09T18:01:16.525Z,67.01
2023-05-09T18:06:20.676Z,67.60
2023-05-09T18:11:59.756Z,68.33
2023-05-09T18:17:05.042Z,67.19
2023-05-09T18:29:22.520Z,65.81
2023-05-09T18:35:03.221Z,65.46
2023-05-09T18:41:37.051Z,64.93
2023-05-09T18:47:57.748Z,66.03
2023-05-09T18:53:08.566Z,65.51
2023-05-09T18:58:11.472Z,65.70
2023-05-09T19:03:15.557Z,65.69
2023-05-09T19:08:18.265Z,65.83
2023-05-09T19:13:21.080Z,66.55
2023-05-09T19:18:25.123Z,66.70
2023-05-09T19:23:27.966Z,66.53
2023-05-09T19:28:30.691Z,66.27
2023-05-09T19:33:35.572Z,66.89
2023-05-09T19:38:38.207Z,66.91
2023-05-09T19:43:40.965Z,66.87
2023-05-09T19:48:45.029Z,66.35
2023-05-09T19:53:47.854Z,66.08
2023-05-09T19:58:50.556Z,66.96
2023-05-09T20:03:56.661Z,66.43
2023-05-09T20:09:03.063Z,66.47
2023-05-09T20:14:05.840Z,66.81
2023-05-09T20:19:09.781Z,65.85
2023-05-09T20:24:12.601Z,65.42
2023-05-09T20:29:15.345Z,64.72
2023-05-09T20:34:20.885Z,64.39
2023-05-09T20:39:24.709Z,64.34
2023-05-09T20:44:27.388Z,64.43
2023-05-09T20:49:31.517Z,64.99
2023-05-09T20:54:34.124Z,65.42
2023-05-09T20:59:36.732Z,64.55
2023-05-09T21:04:40.800Z,64.54
2023-05-09T21:09:43.386Z,65.08
2023-05-09T21:14:45.973Z,65.25
2023-05-09T21:19:51.458Z,65.28
2023-05-09T21:24:54.385Z,65.05
2023-05-09T21:29:56.976Z,65.35
2023-05-09T21:35:01.986Z,65.91
2023-05-09T21:40:05.882Z,65.90
2023-05-09T21:45:09.357Z,65.80
2023-05-09T21:50:13.794Z,65.55
2023-05-09T21:55:16.844Z,65.69
2023-05-09T22:00:20.883Z,66.56
2023-05-09T22:05:25.617Z,66.50
2023-05-09T22:10:28.707Z,66.35
2023-05-09T22:15:31.483Z,66.31
2023-05-09T22:20:35.489Z,66.36
2023-05-09T22:31:09.043Z,67.04
2023-05-09T22:36:14.413Z,67.71
2023-05-09T22:41:17.435Z,67.08
2023-05-09T22:46:20.204Z,67.90
2023-05-09T22:51:24.262Z,67.82
2023-05-09T22:56:27.262Z,68.27
2023-05-09T23:01:29.914Z,67.92
2023-05-09T23:06:33.927Z,68.73
2023-05-09T23:11:36.539Z,67.47
2023-05-09T23:16:39.168Z,68.86
2023-05-09T23:21:43.146Z,69.84
2023-05-09T23:26:45.823Z,68.61
2023-05-09T23:31:48.465Z,68.27
2023-05-09T23:36:52.568Z,68.25
2023-05-09T23:41:55.196Z,68.94
2023-05-09T23:46:58.072Z,68.44
2023-05-09T23:52:02.112Z,68.44
2023-05-09T23:57:04.901Z,68.67
